Terminal Aerodrome Forecast
Issued by NWS

Home | Current Version | Previous Version | Text Only | Print | Product List | Glossary Off
Versions: 1 2 3 4 5 6 7 8 9 10 11 12 13 14 15 16 17 18

000
FTUS43 KICT 222337
TAFSLN
TAF
KSLN 222337Z 2300/2324 19014KT P6SM OVC009
     FM230300 18011KT 2SM BR SCT003 OVC006
      TEMPO 2310/2314 1SM BR OVC004
     FM231500 35026G33KT P6SM OVC015
     FM232200 35020G28KT P6SM OVC060=

USA.gov is the U.S. government's official web portal to all federal, state and local government web resources and services.